Time;durP1;ratioP1;P1;durP2;ratioP2;P2;SDS_P1;SDS_P2;PMS_P1;PMS_P2;Temp;Humidity;BMP_temperature;BMP_pressure;BME280_temperature;BME280_humidity;BME280_pressure;Samples;Min_cycle;Max_cycle;Signal;HPM_P1;HPM_P2
2024/01/15 00:01:54;;;;;;;7.37;0.90;;;1.40;79.00;;;;;;5047267;28;20308;-72
2024/01/15 00:04:20;;;;;;;5.13;0.50;;;1.30;79.40;;;;;;5040356;28;20045;-72
2024/01/15 00:06:45;;;;;;;6.20;0.53;;;1.20;79.50;;;;;;5027637;28;20049;-71
2024/01/15 00:09:11;;;;;;;5.33;0.80;;;1.10;79.70;;;;;;5035961;28;20534;-72
2024/01/15 00:11:37;;;;;;;6.70;0.70;;;1.10;80.00;;;;;;5028680;28;20073;-71
2024/01/15 00:14:03;;;;;;;8.13;0.60;;;1.10;80.10;;;;;;5048499;28;20419;-74
2024/01/15 00:16:29;;;;;;;6.57;1.70;;;1.10;80.40;;;;;;5046333;28;20059;-73
2024/01/15 00:18:54;;;;;;;14.40;1.60;;;1.00;81.00;;;;;;5032551;28;20045;-72
2024/01/15 00:21:20;;;;;;;13.53;1.97;;;1.10;81.20;;;;;;5043988;28;20052;-73
2024/01/15 00:23:46;;;;;;;16.40;2.17;;;1.10;81.40;;;;;;5017994;28;20095;-73
2024/01/15 00:26:11;;;;;;;16.07;2.07;;;1.10;81.60;;;;;;5035896;28;20049;-74
2024/01/15 00:28:38;;;;;;;14.67;2.20;;;1.10;81.80;;;;;;5046067;28;20057;-72
2024/01/15 00:31:05;;;;;;;13.67;1.53;;;1.10;81.60;;;;;;5029760;28;20128;-73
2024/01/15 00:33:30;;;;;;;9.73;1.77;;;1.10;81.70;;;;;;5029494;28;20049;-72
2024/01/15 00:35:56;;;;;;;7.93;1.87;;;1.00;81.70;;;;;;5021538;28;20049;-72
2024/01/15 00:38:22;;;;;;;12.63;1.83;;;1.00;81.90;;;;;;5018939;28;20064;-73
2024/01/15 00:40:47;;;;;;;13.97;2.60;;;1.00;82.00;;;;;;5021428;28;20052;-73
2024/01/15 00:43:13;;;;;;;20.10;2.30;;;1.00;82.30;;;;;;5042823;28;20041;-74
2024/01/15 00:45:39;;;;;;;23.80;3.20;;;1.00;82.30;;;;;;5047680;28;20057;-73
2024/01/15 00:48:05;;;;;;;20.27;3.10;;;1.10;82.60;;;;;;5016690;28;20455;-72
2024/01/15 00:50:31;;;;;;;18.87;2.93;;;1.10;82.50;;;;;;5036330;28;20057;-72
2024/01/15 00:52:56;;;;;;;18.83;3.07;;;1.10;82.60;;;;;;5026074;28;20061;-73
2024/01/15 00:55:22;;;;;;;15.63;2.97;;;1.10;82.70;;;;;;5045450;28;20075;-72
2024/01/15 00:57:47;;;;;;;23.67;3.47;;;1.10;82.70;;;;;;5030006;28;20128;-71
2024/01/15 01:00:14;;;;;;;27.73;4.30;;;1.10;82.60;;;;;;5043176;28;20491;-72
2024/01/15 01:02:39;;;;;;;31.97;3.77;;;1.10;82.80;;;;;;5031118;28;20676;-71
2024/01/15 01:05:05;;;;;;;31.73;4.70;;;1.10;83.00;;;;;;5022941;28;20191;-72
2024/01/15 01:07:31;;;;;;;26.43;4.40;;;1.00;82.90;;;;;;5042652;28;20049;-73
2024/01/15 01:09:56;;;;;;;30.93;4.30;;;1.10;83.20;;;;;;5030130;28;20041;-73
2024/01/15 01:12:22;;;;;;;36.53;4.27;;;1.10;83.00;;;;;;5023298;28;20057;-72
2024/01/15 01:14:48;;;;;;;35.70;3.80;;;1.10;83.00;;;;;;5021046;28;20122;-71
2024/01/15 01:17:13;;;;;;;25.83;3.77;;;1.20;83.00;;;;;;5025480;28;20323;-71
2024/01/15 01:19:39;;;;;;;30.07;3.93;;;1.20;83.00;;;;;;5029033;28;20500;-73
2024/01/15 01:22:05;;;;;;;29.87;3.63;;;1.20;82.70;;;;;;5047039;28;20090;-72
2024/01/15 01:24:30;;;;;;;27.23;3.63;;;1.40;82.40;;;;;;5031684;28;20471;-72
2024/01/15 01:26:56;;;;;;;23.17;3.43;;;1.40;82.30;;;;;;5026539;28;20045;-73
2024/01/15 01:29:22;;;;;;;24.37;3.97;;;1.40;82.30;;;;;;5044613;28;20055;-71
2024/01/15 01:31:48;;;;;;;25.20;3.97;;;1.40;82.20;;;;;;5046604;28;20045;-72
2024/01/15 01:34:15;;;;;;;20.67;3.80;;;1.50;82.10;;;;;;5047251;28;20114;-73
2024/01/15 01:36:42;;;;;;;23.53;3.40;;;1.50;81.90;;;;;;5053382;28;20045;-73
2024/01/15 01:39:07;;;;;;;28.33;3.50;;;1.60;81.50;;;;;;5020433;28;20119;-72
2024/01/15 01:41:33;;;;;;;17.77;3.27;;;1.60;81.10;;;;;;5028219;28;20037;-73
2024/01/15 01:43:59;;;;;;;21.80;3.00;;;1.60;80.80;;;;;;5028967;28;20033;-75
2024/01/15 01:46:26;;;;;;;13.53;2.40;;;1.60;80.70;;;;;;5045694;28;20049;-72
2024/01/15 01:48:53;;;;;;;14.07;2.70;;;1.50;80.30;;;;;;5011728;28;20048;-73
2024/01/15 01:51:21;;;;;;;25.53;3.13;;;1.50;80.00;;;;;;5013093;28;20092;-73
2024/01/15 01:53:47;;;;;;;24.10;2.97;;;1.40;79.80;;;;;;5024441;28;20050;-74
2024/01/15 01:56:14;;;;;;;17.40;2.87;;;1.40;79.90;;;;;;5026654;28;20079;-72
2024/01/15 01:58:40;;;;;;;20.87;3.50;;;1.40;79.90;;;;;;5008820;28;20456;-72
2024/01/15 02:01:06;;;;;;;23.60;3.13;;;1.40;79.80;;;;;;5038327;28;20120;-72
2024/01/15 02:03:32;;;;;;;24.10;3.53;;;1.40;79.70;;;;;;5020778;28;20403;-72
2024/01/15 02:05:59;;;;;;;22.50;3.67;;;1.50;79.70;;;;;;5036181;28;20045;-71
2024/01/15 02:08:26;;;;;;;22.53;3.57;;;1.50;79.70;;;;;;5041352;28;20580;-72
2024/01/15 02:10:51;;;;;;;23.60;4.00;;;1.50;79.60;;;;;;5033223;28;20107;-72
2024/01/15 02:13:18;;;;;;;24.37;3.30;;;1.50;79.50;;;;;;5026219;28;20076;-72
2024/01/15 02:15:44;;;;;;;24.23;4.40;;;1.50;79.60;;;;;;5041775;28;20068;-71
2024/01/15 02:18:10;;;;;;;19.67;3.87;;;1.50;79.70;;;;;;5035775;28;20049;-72
2024/01/15 02:20:36;;;;;;;22.30;3.77;;;1.50;79.80;;;;;;5029896;28;20056;-72
2024/01/15 02:23:13;;;;;;;25.30;3.03;;;1.50;80.00;;;;;;5042551;28;20438;-71
2024/01/15 02:25:41;;;;;;;18.83;3.53;;;1.60;80.10;;;;;;5045194;28;20045;-72
2024/01/15 02:28:09;;;;;;;26.83;3.87;;;1.50;80.20;;;;;;5010993;28;20037;-74
2024/01/15 02:30:39;;;;;;;25.77;3.40;;;1.50;80.40;;;;;;5012831;28;20049;-72
2024/01/15 02:33:05;;;;;;;24.67;3.53;;;1.50;80.70;;;;;;5018897;28;20060;-72
2024/01/15 02:35:31;;;;;;;24.87;3.67;;;1.40;80.80;;;;;;5021180;28;20064;-72
2024/01/15 02:37:56;;;;;;;19.83;3.77;;;1.40;81.10;;;;;;5010851;28;20037;-72
2024/01/15 02:40:22;;;;;;;21.03;2.83;;;1.50;81.00;;;;;;5022688;28;20061;-73
2024/01/15 02:42:48;;;;;;;15.47;2.50;;;1.50;81.10;;;;;;5046301;28;20373;-72
2024/01/15 02:45:14;;;;;;;20.17;2.47;;;1.50;81.00;;;;;;5035234;28;20046;-73
2024/01/15 02:47:39;;;;;;;11.07;1.97;;;1.50;80.90;;;;;;5030239;28;20520;-72
2024/01/15 02:50:05;;;;;;;8.70;1.60;;;1.50;80.60;;;;;;5045488;28;20053;-74
2024/01/15 02:52:31;;;;;;;23.73;2.93;;;1.50;80.50;;;;;;5048269;28;20124;-73
2024/01/15 02:54:57;;;;;;;17.93;2.87;;;1.50;80.50;;;;;;5037786;28;20132;-71
2024/01/15 02:57:22;;;;;;;22.40;3.37;;;1.50;80.60;;;;;;5049132;28;20045;-73
2024/01/15 02:59:48;;;;;;;25.80;3.37;;;1.50;80.80;;;;;;5047569;28;20077;-76
2024/01/15 03:02:14;;;;;;;22.27;3.20;;;1.50;80.80;;;;;;5048534;28;20376;-73
2024/01/15 03:04:48;;;;;;;29.13;4.00;;;1.50;80.90;;;;;;5050016;28;20072;-72
2024/01/15 03:07:14;;;;;;;22.77;3.63;;;1.50;80.80;;;;;;5032286;28;20458;-72
2024/01/15 03:09:40;;;;;;;23.80;3.90;;;1.60;80.70;;;;;;5041788;28;20045;-72
2024/01/15 03:12:06;;;;;;;27.57;3.83;;;1.60;80.70;;;;;;5036118;28;20136;-71
2024/01/15 03:14:32;;;;;;;25.03;3.73;;;1.60;80.60;;;;;;5046487;28;20053;-71
2024/01/15 03:16:57;;;;;;;31.13;5.33;;;1.70;80.70;;;;;;5012094;28;20095;-72
2024/01/15 03:19:23;;;;;;;37.27;4.93;;;1.70;80.60;;;;;;5049016;28;20102;-72
2024/01/15 03:21:49;;;;;;;30.10;4.63;;;1.70;80.60;;;;;;5038111;28;20049;-72
2024/01/15 03:24:14;;;;;;;37.23;5.33;;;1.70;80.60;;;;;;5048900;28;20360;-73
2024/01/15 03:26:40;;;;;;;35.27;5.70;;;1.70;80.60;;;;;;5045660;28;20053;-72
2024/01/15 03:29:07;;;;;;;29.27;4.87;;;1.60;80.50;;;;;;5015725;28;20049;-73
2024/01/15 03:31:32;;;;;;;36.40;5.73;;;1.60;80.50;;;;;;5032001;28;20103;-72
2024/01/15 03:33:58;;;;;;;31.10;4.30;;;1.60;80.20;;;;;;5037326;28;20053;-71
2024/01/15 03:36:24;;;;;;;28.10;4.63;;;1.50;79.90;;;;;;5030358;28;20423;-75
2024/01/15 03:38:50;;;;;;;24.43;3.83;;;1.60;79.40;;;;;;5026848;28;20049;-72
2024/01/15 03:41:15;;;;;;;20.90;3.63;;;1.60;79.30;;;;;;5011355;28;20057;-72
2024/01/15 03:43:41;;;;;;;17.03;2.30;;;1.60;79.00;;;;;;5055122;28;20048;-72
2024/01/15 03:46:07;;;;;;;16.17;2.67;;;1.60;78.80;;;;;;5034697;28;20045;-71
2024/01/15 03:48:33;;;;;;;18.57;2.47;;;1.60;78.90;;;;;;5030053;28;20427;-72
2024/01/15 03:50:58;;;;;;;12.47;2.03;;;1.60;78.80;;;;;;5037000;28;20049;-73
2024/01/15 03:53:24;;;;;;;18.50;3.07;;;1.60;78.60;;;;;;5040001;28;20554;-75
2024/01/15 03:55:50;;;;;;;13.90;2.30;;;1.70;78.20;;;;;;5030233;28;20137;-73
2024/01/15 03:58:16;;;;;;;11.60;2.00;;;1.70;78.40;;;;;;5038863;28;20526;-72
2024/01/15 04:00:42;;;;;;;10.90;1.40;;;1.70;78.30;;;;;;5040532;28;20273;-72
2024/01/15 04:03:09;;;;;;;9.27;1.10;;;1.70;78.10;;;;;;5040924;28;20092;-72
2024/01/15 04:05:35;;;;;;;7.33;1.10;;;1.70;78.00;;;;;;5048020;28;20085;-72
2024/01/15 04:08:01;;;;;;;19.37;2.77;;;1.70;78.10;;;;;;5030709;28;20045;-72
2024/01/15 04:10:27;;;;;;;17.27;2.80;;;1.70;78.10;;;;;;5027564;28;20135;-72
2024/01/15 04:12:52;;;;;;;14.50;2.47;;;1.70;78.20;;;;;;5044465;28;20131;-74
2024/01/15 04:15:18;;;;;;;16.60;2.67;;;1.70;78.20;;;;;;5028306;28;20043;-72
2024/01/15 04:17:44;;;;;;;14.40;2.33;;;1.60;78.30;;;;;;5042578;28;20359;-72
2024/01/15 04:20:10;;;;;;;15.80;2.57;;;1.50;78.40;;;;;;5045296;28;20049;-72
2024/01/15 04:22:37;;;;;;;18.97;2.33;;;1.40;78.70;;;;;;5017123;28;20467;-72
2024/01/15 04:25:03;;;;;;;22.83;2.33;;;1.40;78.90;;;;;;5035640;28;20069;-72
2024/01/15 04:27:29;;;;;;;14.03;1.97;;;1.40;78.70;;;;;;5047560;28;20094;-71
2024/01/15 04:29:54;;;;;;;9.30;1.60;;;1.30;78.70;;;;;;5038683;28;20427;-73
2024/01/15 04:32:20;;;;;;;10.93;1.83;;;1.20;78.60;;;;;;5037530;28;20049;-73
2024/01/15 04:34:46;;;;;;;8.80;1.47;;;1.20;77.90;;;;;;5048150;28;20052;-73
2024/01/15 04:37:13;;;;;;;9.87;1.40;;;1.10;78.00;;;;;;5039305;28;20077;-72
2024/01/15 04:39:38;;;;;;;10.50;1.20;;;1.10;77.90;;;;;;5013619;28;20099;-74
2024/01/15 04:42:04;;;;;;;4.57;0.43;;;1.00;77.80;;;;;;5053229;28;20133;-71
2024/01/15 04:44:30;;;;;;;7.83;1.03;;;1.00;77.70;;;;;;5028441;28;20112;-71
2024/01/15 04:46:56;;;;;;;9.37;1.07;;;0.90;77.30;;;;;;5041700;28;20396;-72
2024/01/15 04:49:21;;;;;;;9.47;1.10;;;0.80;77.00;;;;;;5037974;28;20053;-71
2024/01/15 04:51:47;;;;;;;6.13;1.00;;;0.80;77.10;;;;;;5032237;28;20090;-72
2024/01/15 04:54:17;;;;;;;10.33;1.37;;;0.80;77.30;;;;;;5047323;28;20507;-72
2024/01/15 04:56:43;;;;;;;9.20;1.20;;;0.80;77.50;;;;;;5026348;28;20049;-72
2024/01/15 04:59:09;;;;;;;12.40;1.73;;;0.80;77.60;;;;;;5037148;28;20049;-71
2024/01/15 05:01:35;;;;;;;10.93;1.70;;;0.80;77.80;;;;;;5046186;28;20049;-71
2024/01/15 05:04:01;;;;;;;16.33;1.33;;;0.80;77.90;;;;;;5041988;28;20134;-71
2024/01/15 05:06:26;;;;;;;15.63;1.90;;;0.80;78.00;;;;;;5027041;28;20077;-71
2024/01/15 05:08:52;;;;;;;14.20;1.60;;;0.70;78.20;;;;;;5030124;28;20044;-71
2024/01/15 05:11:18;;;;;;;22.80;2.50;;;0.70;78.20;;;;;;5044888;28;20048;-71
2024/01/15 05:13:44;;;;;;;22.97;3.10;;;0.70;78.40;;;;;;5043024;28;20373;-71
2024/01/15 05:16:09;;;;;;;18.90;2.70;;;0.70;78.60;;;;;;5020224;28;20060;-72
2024/01/15 05:18:37;;;;;;;24.83;3.20;;;0.70;78.60;;;;;;5017105;28;20053;-73
2024/01/15 05:21:03;;;;;;;20.23;3.27;;;0.70;78.70;;;;;;5041046;28;20041;-71
2024/01/15 05:23:29;;;;;;;16.47;3.20;;;0.70;79.00;;;;;;5044703;28;20403;-71
2024/01/15 05:25:54;;;;;;;19.83;3.30;;;0.60;78.90;;;;;;5053277;28;20044;-71
2024/01/15 05:28:20;;;;;;;21.43;3.67;;;0.60;79.00;;;;;;5038841;28;20114;-71
2024/01/15 05:30:46;;;;;;;13.47;2.77;;;0.60;79.00;;;;;;5054174;28;20055;-71
2024/01/15 05:33:11;;;;;;;20.33;3.23;;;0.70;78.60;;;;;;5047592;28;20472;-71
2024/01/15 05:35:37;;;;;;;22.83;3.20;;;0.70;78.50;;;;;;5052454;28;20052;-71
2024/01/15 05:38:03;;;;;;;26.43;3.77;;;0.80;78.20;;;;;;5051237;28;20079;-71
2024/01/15 05:40:28;;;;;;;21.63;3.40;;;0.80;78.20;;;;;;5062056;28;20530;-72
2024/01/15 05:42:54;;;;;;;16.57;2.90;;;0.80;77.80;;;;;;5056687;28;20052;-73
2024/01/15 05:45:20;;;;;;;19.57;2.60;;;0.80;77.80;;;;;;5062623;28;20419;-72
2024/01/15 05:47:45;;;;;;;21.13;3.33;;;0.80;77.70;;;;;;5041253;28;20138;-71
2024/01/15 05:50:11;;;;;;;20.57;2.80;;;0.70;77.80;;;;;;5049130;28;20055;-70
2024/01/15 05:52:37;;;;;;;18.37;3.30;;;0.60;78.00;;;;;;5008808;28;20049;-71
2024/01/15 05:55:03;;;;;;;25.20;3.73;;;0.60;78.30;;;;;;5035385;28;20042;-72
2024/01/15 05:57:28;;;;;;;14.80;4.00;;;0.60;78.50;;;;;;5042135;28;20080;-71
2024/01/15 05:59:54;;;;;;;27.90;4.53;;;0.60;78.70;;;;;;5034634;28;20045;-72
2024/01/15 06:02:20;;;;;;;23.53;3.80;;;0.60;78.80;;;;;;5040934;28;20045;-72
2024/01/15 06:04:46;;;;;;;30.53;4.13;;;0.70;79.00;;;;;;5033985;28;20536;-71
2024/01/15 06:07:11;;;;;;;34.50;4.00;;;0.70;79.10;;;;;;5021371;28;20057;-71
2024/01/15 06:09:38;;;;;;;32.50;4.50;;;0.70;79.10;;;;;;5039592;28;20049;-72
2024/01/15 06:12:04;;;;;;;24.10;3.63;;;0.70;79.20;;;;;;5027808;28;20080;-71
2024/01/15 06:14:30;;;;;;;26.63;4.23;;;0.80;79.20;;;;;;5051662;28;20061;-72
2024/01/15 06:16:56;;;;;;;27.00;3.90;;;0.80;79.20;;;;;;5054037;28;20062;-72
2024/01/15 06:19:21;;;;;;;23.87;3.77;;;0.80;79.30;;;;;;5042992;28;20128;-71
2024/01/15 06:21:47;;;;;;;26.40;3.97;;;0.80;79.40;;;;;;5046611;28;20055;-72
2024/01/15 06:24:13;;;;;;;28.67;4.53;;;0.80;79.30;;;;;;5054119;28;20076;-71
2024/01/15 06:26:39;;;;;;;19.37;3.90;;;0.80;79.40;;;;;;5050047;28;20056;-71
2024/01/15 06:29:05;;;;;;;20.37;3.60;;;0.70;79.60;;;;;;5052190;28;20056;-71
2024/01/15 06:31:30;;;;;;;20.70;4.10;;;0.70;79.80;;;;;;5056913;28;20053;-72
2024/01/15 06:33:56;;;;;;;30.27;3.83;;;0.60;79.90;;;;;;5052264;28;20102;-71
2024/01/15 06:36:22;;;;;;;20.47;3.80;;;0.70;80.20;;;;;;5060106;28;20764;-72
2024/01/15 06:38:48;;;;;;;21.67;3.17;;;0.60;80.30;;;;;;5058523;28;20048;-72
2024/01/15 06:41:13;;;;;;;21.33;4.00;;;0.60;80.50;;;;;;5037730;28;20083;-71
2024/01/15 06:43:39;;;;;;;19.60;3.60;;;0.70;80.60;;;;;;5047571;28;20057;-72
2024/01/15 06:46:05;;;;;;;22.17;3.10;;;0.70;80.60;;;;;;5057984;28;20250;-71
2024/01/15 06:48:30;;;;;;;28.03;3.77;;;0.60;80.60;;;;;;5054544;28;20048;-71
2024/01/15 06:50:56;;;;;;;20.67;3.70;;;0.60;80.50;;;;;;5032701;28;20051;-71
2024/01/15 06:53:22;;;;;;;25.30;3.40;;;0.60;80.60;;;;;;5059605;28;20092;-72
2024/01/15 06:55:49;;;;;;;17.00;2.70;;;0.60;80.50;;;;;;5039704;28;20052;-72
2024/01/15 06:58:14;;;;;;;12.37;1.57;;;0.60;80.50;;;;;;5057363;28;20446;-72
2024/01/15 07:00:40;;;;;;;17.13;2.73;;;0.60;80.40;;;;;;5043428;28;20045;-72
2024/01/15 07:03:07;;;;;;;13.57;2.00;;;0.50;80.30;;;;;;5030544;28;20059;-71
2024/01/15 07:05:32;;;;;;;16.77;2.03;;;0.60;80.20;;;;;;5046620;28;20495;-71
2024/01/15 07:07:58;;;;;;;16.13;2.47;;;0.60;80.00;;;;;;5029730;28;20051;-71
2024/01/15 07:10:24;;;;;;;19.87;2.30;;;0.60;79.90;;;;;;5056129;28;20049;-71
2024/01/15 07:12:50;;;;;;;20.60;2.57;;;0.60;80.00;;;;;;5042590;28;20040;-72
2024/01/15 07:15:15;;;;;;;22.17;2.40;;;0.60;80.00;;;;;;5043375;28;20060;-73
2024/01/15 07:17:42;;;;;;;14.63;2.40;;;0.60;79.80;;;;;;5034969;28;20099;-72
2024/01/15 07:20:09;;;;;;;21.23;2.47;;;0.60;79.50;;;;;;5034389;28;20111;-73
2024/01/15 07:22:38;;;;;;;12.63;2.13;;;0.60;79.20;;;;;;5038437;28;20096;-71
2024/01/15 07:25:04;;;;;;;18.90;2.40;;;0.60;79.10;;;;;;5033739;28;20052;-71
2024/01/15 07:27:31;;;;;;;16.40;2.30;;;0.60;78.60;;;;;;5043173;28;20145;-71
2024/01/15 07:29:57;;;;;;;16.07;2.17;;;0.60;78.50;;;;;;5031709;28;20045;-71
2024/01/15 07:32:23;;;;;;;13.10;2.17;;;0.60;78.70;;;;;;5049507;28;20302;-70
2024/01/15 07:34:49;;;;;;;13.83;2.57;;;0.60;78.70;;;;;;5025158;28;20041;-73
2024/01/15 07:37:15;;;;;;;12.03;2.27;;;0.60;78.60;;;;;;5054856;28;20125;-72
2024/01/15 07:39:40;;;;;;;13.93;2.27;;;0.60;78.80;;;;;;5065193;28;20060;-72
2024/01/15 07:42:07;;;;;;;23.87;3.27;;;0.60;78.90;;;;;;5053853;28;20601;-72
2024/01/15 07:44:33;;;;;;;14.50;2.57;;;0.60;79.30;;;;;;5058858;28;20175;-71
2024/01/15 07:46:59;;;;;;;20.53;2.30;;;0.60;79.40;;;;;;5059544;28;20335;-72
2024/01/15 07:49:25;;;;;;;19.47;2.93;;;0.60;79.70;;;;;;5063567;28;20071;-72
2024/01/15 07:51:50;;;;;;;22.63;3.30;;;0.60;79.90;;;;;;5058245;28;20117;-71
2024/01/15 07:54:16;;;;;;;14.17;3.13;;;0.60;80.10;;;;;;5053435;28;20601;-72
2024/01/15 07:57:00;;;;;;;21.47;3.37;;;0.50;80.20;;;;;;5037813;28;20053;-72
2024/01/15 07:59:27;;;;;;;19.90;3.60;;;0.50;80.30;;;;;;5035002;28;20635;-73
2024/01/15 08:01:52;;;;;;;21.57;3.43;;;0.40;80.50;;;;;;5042845;28;20044;-71
2024/01/15 08:04:19;;;;;;;23.33;3.53;;;0.40;80.80;;;;;;5029732;28;20045;-72
2024/01/15 08:06:45;;;;;;;18.47;2.47;;;0.40;81.00;;;;;;5037445;28;20049;-72
2024/01/15 08:09:11;;;;;;;13.03;2.03;;;0.40;81.10;;;;;;5048494;28;20633;-71
2024/01/15 08:11:41;;;;;;;18.83;2.83;;;0.40;81.10;;;;;;5046302;28;20084;-71
2024/01/15 08:14:07;;;;;;;10.93;1.90;;;0.40;80.80;;;;;;5027845;28;20115;-71
2024/01/15 08:16:32;;;;;;;16.53;2.33;;;0.40;80.50;;;;;;5007254;28;20493;-72
2024/01/15 08:18:58;;;;;;;22.00;2.30;;;0.40;80.30;;;;;;5008021;28;20033;-71
2024/01/15 08:21:24;;;;;;;15.77;1.83;;;0.50;80.00;;;;;;5009695;28;20045;-72
2024/01/15 08:23:50;;;;;;;14.50;2.03;;;0.50;80.00;;;;;;5019164;28;20049;-71
2024/01/15 08:26:16;;;;;;;13.40;1.80;;;0.50;79.80;;;;;;5034896;28;20566;-71
2024/01/15 08:28:41;;;;;;;14.40;2.27;;;0.50;79.80;;;;;;5027445;28;20075;-73
2024/01/15 08:31:07;;;;;;;17.13;2.20;;;0.50;79.70;;;;;;5061158;28;20052;-71
2024/01/15 08:33:33;;;;;;;13.37;2.17;;;0.50;79.60;;;;;;5042003;28;20519;-72
2024/01/15 08:35:58;;;;;;;14.60;2.53;;;0.60;79.50;;;;;;5038141;28;20049;-71
2024/01/15 08:38:25;;;;;;;20.77;2.90;;;0.60;79.30;;;;;;5021777;28;20128;-71
2024/01/15 08:40:53;;;;;;;14.67;2.00;;;0.80;79.30;;;;;;5026157;28;20049;-72
2024/01/15 08:43:19;;;;;;;11.17;1.90;;;1.00;79.10;;;;;;5025595;28;20376;-72
2024/01/15 08:45:45;;;;;;;10.63;1.63;;;1.10;78.70;;;;;;5034532;28;20080;-72
2024/01/15 08:48:10;;;;;;;15.97;2.17;;;1.10;78.60;;;;;;5034722;28;20045;-72
2024/01/15 08:50:36;;;;;;;10.67;1.67;;;1.20;78.70;;;;;;5036363;28;20091;-71
2024/01/15 08:53:02;;;;;;;13.60;1.87;;;1.20;78.90;;;;;;5034227;28;20068;-71
2024/01/15 08:55:28;;;;;;;16.90;2.50;;;1.20;78.90;;;;;;5037212;28;20605;-70
2024/01/15 08:57:54;;;;;;;17.43;2.23;;;1.20;78.90;;;;;;5023295;28;20049;-71
2024/01/15 09:00:20;;;;;;;19.07;2.23;;;1.20;78.50;;;;;;5015779;28;20140;-71
2024/01/15 09:02:45;;;;;;;10.40;2.00;;;1.20;78.50;;;;;;5033902;28;20057;-72
2024/01/15 09:05:11;;;;;;;20.43;2.50;;;1.20;78.40;;;;;;5012418;28;20142;-74
2024/01/15 09:07:37;;;;;;;16.03;1.60;;;1.20;78.40;;;;;;5014439;28;20045;-74
2024/01/15 09:10:03;;;;;;;9.27;1.50;;;1.10;78.30;;;;;;5030355;28;20084;-71
2024/01/15 09:12:29;;;;;;;9.10;1.33;;;1.10;78.50;;;;;;5030517;28;20052;-72
2024/01/15 09:14:55;;;;;;;10.57;1.73;;;1.10;78.30;;;;;;5030717;28;20056;-74
2024/01/15 09:17:23;;;;;;;13.80;1.77;;;1.10;78.70;;;;;;5034154;28;20063;-71
2024/01/15 09:19:49;;;;;;;16.90;1.80;;;1.10;78.80;;;;;;5034127;28;20112;-73
2024/01/15 09:22:18;;;;;;;14.97;2.07;;;1.10;79.00;;;;;;5030872;28;20250;-72
2024/01/15 09:24:44;;;;;;;10.87;1.67;;;1.10;79.00;;;;;;5031354;28;20132;-72
2024/01/15 09:27:10;;;;;;;13.30;2.30;;;1.10;79.10;;;;;;5034050;28;21535;-72
2024/01/15 09:29:39;;;;;;;17.87;2.50;;;1.10;79.10;;;;;;5030053;28;20489;-73
2024/01/15 09:32:07;;;;;;;12.57;2.37;;;1.00;79.20;;;;;;5037014;28;20544;-74
2024/01/15 09:34:33;;;;;;;12.17;2.20;;;1.00;79.20;;;;;;5042054;28;20166;-73
2024/01/15 09:36:59;;;;;;;20.57;2.33;;;1.00;79.20;;;;;;5036895;28;20045;-71
2024/01/15 09:39:26;;;;;;;19.53;2.23;;;1.00;79.40;;;;;;5018186;28;20071;-75
2024/01/15 09:41:52;;;;;;;16.00;2.57;;;1.00;79.40;;;;;;5023385;28;20099;-73
2024/01/15 09:44:19;;;;;;;20.03;3.33;;;1.00;79.40;;;;;;5024395;28;20036;-74
2024/01/15 09:46:46;;;;;;;17.57;2.73;;;1.00;79.50;;;;;;5032927;28;20506;-72
2024/01/15 09:49:12;;;;;;;30.30;3.13;;;1.10;79.60;;;;;;5019805;28;21369;-71
2024/01/15 09:51:39;;;;;;;18.53;2.80;;;1.10;79.70;;;;;;5015132;28;20060;-72
2024/01/15 09:54:05;;;;;;;12.47;2.70;;;1.10;79.70;;;;;;5009918;28;20463;-76
2024/01/15 09:56:31;;;;;;;14.93;1.90;;;1.10;79.80;;;;;;5039682;28;20061;-76
2024/01/15 09:58:57;;;;;;;15.23;2.37;;;1.10;80.00;;;;;;5024746;28;20052;-73
2024/01/15 10:01:24;;;;;;;10.53;1.97;;;1.20;80.00;;;;;;5042132;28;20087;-72
2024/01/15 10:03:50;;;;;;;13.40;2.17;;;1.20;80.10;;;;;;5042282;28;20094;-76
2024/01/15 10:06:17;;;;;;;16.63;2.17;;;1.40;80.40;;;;;;5024955;28;20896;-76
2024/01/15 10:08:47;;;;;;;15.13;2.07;;;1.50;80.00;;;;;;5044032;28;20127;-75
2024/01/15 10:11:13;;;;;;;15.93;2.10;;;1.50;80.00;;;;;;5040519;28;20143;-73
2024/01/15 10:13:39;;;;;;;20.37;2.47;;;1.50;80.10;;;;;;5029912;28;20410;-72
2024/01/15 10:16:05;;;;;;;14.30;2.10;;;1.50;80.30;;;;;;5034944;28;20532;-73
2024/01/15 10:18:32;;;;;;;15.37;2.10;;;1.50;80.40;;;;;;5010182;28;20053;-72
2024/01/15 10:20:58;;;;;;;12.77;1.97;;;1.50;80.50;;;;;;5043176;28;20060;-72
2024/01/15 10:23:24;;;;;;;12.20;2.23;;;1.50;80.70;;;;;;5043597;28;20481;-74
2024/01/15 10:25:51;;;;;;;12.90;2.07;;;1.60;80.70;;;;;;5015986;28;20139;-73
2024/01/15 10:28:18;;;;;;;10.97;1.57;;;1.70;80.80;;;;;;5031282;28;20052;-72
2024/01/15 10:30:45;;;;;;;14.37;2.20;;;2.00;81.00;;;;;;5034343;28;20102;-73
2024/01/15 10:33:11;;;;;;;19.33;2.50;;;2.50;80.90;;;;;;5035671;28;20049;-77
2024/01/15 10:35:38;;;;;;;13.07;1.80;;;3.10;80.30;;;;;;5031524;28;20415;-75
2024/01/15 10:38:05;;;;;;;6.13;1.23;;;3.30;79.40;;;;;;5045455;28;20051;-71
2024/01/15 10:40:31;;;;;;;6.67;1.23;;;3.10;78.70;;;;;;5029083;28;20376;-75
2024/01/15 10:42:57;;;;;;;8.37;1.57;;;2.90;78.40;;;;;;5036504;28;20048;-72
2024/01/15 10:45:23;;;;;;;4.07;0.67;;;2.80;78.50;;;;;;5016690;28;20136;-75
2024/01/15 10:47:49;;;;;;;3.90;0.47;;;2.60;78.70;;;;;;5032375;28;20076;-75
2024/01/15 10:50:15;;;;;;;5.57;0.50;;;2.50;78.40;;;;;;5024543;28;20092;-76
2024/01/15 10:52:43;;;;;;;3.13;0.53;;;2.20;78.40;;;;;;5030715;28;21104;-76
2024/01/15 10:55:09;;;;;;;3.83;0.50;;;2.10;78.70;;;;;;5042089;28;20059;-72
2024/01/15 10:57:38;;;;;;;5.07;0.47;;;2.00;79.20;;;;;;5014386;28;20053;-75
2024/01/15 11:00:05;;;;;;;6.20;0.60;;;2.00;79.50;;;;;;5028878;28;20076;-72
2024/01/15 11:02:37;;;;;;;6.90;1.00;;;2.00;79.70;;;;;;5029763;28;20112;-73
2024/01/15 11:05:03;;;;;;;4.47;0.50;;;1.90;79.70;;;;;;4998693;28;20048;-72
2024/01/15 11:07:32;;;;;;;8.33;0.77;;;1.80;79.80;;;;;;5029429;28;20067;-73
2024/01/15 11:10:01;;;;;;;6.63;0.90;;;1.70;79.80;;;;;;5026348;28;20079;-75
2024/01/15 11:12:27;;;;;;;9.00;0.93;;;1.60;79.80;;;;;;5003005;28;20469;-73
2024/01/15 11:15:04;;;;;;;7.87;0.90;;;1.50;80.10;;;;;;5018304;28;20514;-73
2024/01/15 11:18:00;;;;;;;3.80;0.80;;;1.50;80.40;;;;;;5014108;28;20143;-75
2024/01/15 11:20:26;;;;;;;3.93;0.40;;;1.80;81.10;;;;;;5045918;28;20522;-72
2024/01/15 11:22:52;;;;;;;9.00;0.77;;;2.30;81.20;;;;;;5030142;28;20052;-72
2024/01/15 11:25:19;;;;;;;7.73;0.67;;;2.50;80.50;;;;;;5013463;28;20056;-74
2024/01/15 11:27:47;;;;;;;6.13;0.87;;;2.40;80.00;;;;;;5014499;28;20570;-73
2024/01/15 11:30:13;;;;;;;5.07;0.67;;;2.30;79.70;;;;;;5025916;28;20080;-76
2024/01/15 11:32:43;;;;;;;7.40;0.77;;;2.20;79.80;;;;;;5025574;28;20037;-72
2024/01/15 11:35:13;;;;;;;7.80;1.00;;;2.00;79.80;;;;;;5011202;28;20134;-72
2024/01/15 11:37:51;;;;;;;7.90;1.13;;;1.90;80.00;;;;;;5011517;28;20045;-72
2024/01/15 11:40:21;;;;;;;7.17;1.30;;;1.90;80.20;;;;;;5010421;28;20123;-74
2024/01/15 11:42:48;;;;;;;5.33;0.53;;;1.80;80.20;;;;;;5030339;28;20515;-74
2024/01/15 11:45:19;;;;;;;1.57;0.40;;;1.60;80.10;;;;;;5028810;28;20067;-76
2024/01/15 11:48:07;;;;;;;5.30;0.50;;;1.40;79.90;;;;;;5011807;28;20060;-71
2024/01/15 11:50:34;;;;;;;4.70;0.63;;;1.20;80.00;;;;;;5030346;28;20056;-74
2024/01/15 11:53:02;;;;;;;6.57;0.90;;;1.00;80.30;;;;;;5010704;28;20202;-73
2024/01/15 11:55:36;;;;;;;9.47;1.30;;;1.00;80.60;;;;;;5027309;28;20088;-73
2024/01/15 11:58:07;;;;;;;8.60;1.27;;;0.90;80.90;;;;;;5013418;28;20045;-72
2024/01/15 12:00:33;;;;;;;16.30;2.00;;;0.90;81.10;;;;;;5027741;28;20067;-72
2024/01/15 12:02:59;;;;;;;11.13;1.80;;;0.80;81.20;;;;;;5034889;28;20313;-71
2024/01/15 12:05:25;;;;;;;16.17;2.47;;;0.80;81.50;;;;;;5014332;28;20040;-72
2024/01/15 12:07:50;;;;;;;14.53;1.80;;;0.90;81.70;;;;;;5032637;28;20076;-71
2024/01/15 12:10:20;;;;;;;15.47;1.93;;;1.00;81.80;;;;;;5038112;28;20041;-71
2024/01/15 12:13:23;;;;;;;7.97;1.60;;;1.10;81.90;;;;;;5030919;28;20056;-71
2024/01/15 12:15:50;;;;;;;14.27;1.90;;;1.20;81.80;;;;;;4991174;28;20061;-72
2024/01/15 12:18:18;;;;;;;13.13;1.73;;;1.30;81.80;;;;;;4995485;28;20832;-76
2024/01/15 12:20:46;;;;;;;10.13;1.50;;;1.40;81.60;;;;;;5027485;28;20508;-72
2024/01/15 12:23:13;;;;;;;12.83;1.70;;;1.40;81.50;;;;;;5034277;28;20080;-75
2024/01/15 12:25:39;;;;;;;13.83;1.80;;;1.50;81.40;;;;;;5017358;28;20087;-72
2024/01/15 12:28:05;;;;;;;14.03;1.57;;;1.60;81.20;;;;;;5024473;28;20128;-75
2024/01/15 12:30:33;;;;;;;9.40;1.63;;;1.80;81.20;;;;;;5017421;28;20149;-71
2024/01/15 12:33:06;;;;;;;13.27;1.77;;;2.00;80.90;;;;;;5012664;28;20048;-76
2024/01/15 12:35:33;;;;;;;14.57;2.23;;;2.00;80.50;;;;;;5021949;28;20510;-72
2024/01/15 12:38:03;;;;;;;19.30;2.33;;;2.10;80.20;;;;;;5017186;28;20041;-75
2024/01/15 12:40:28;;;;;;;11.40;1.43;;;2.20;79.90;;;;;;5008006;28;20349;-74
2024/01/15 12:42:55;;;;;;;14.50;2.17;;;2.30;79.70;;;;;;5011008;28;20054;-75
2024/01/15 12:45:20;;;;;;;20.67;2.40;;;2.40;79.60;;;;;;4996359;28;20390;-75